createdAt,value
2018-01-07T00:01:26.302Z,5.40
2018-01-07T00:03:53.848Z,5.40
2018-01-07T00:06:21.342Z,5.40
2018-01-07T00:08:49.622Z,5.30
2018-01-07T00:11:17.061Z,5.30
2018-01-07T00:13:44.608Z,5.20
2018-01-07T00:16:12.016Z,5.30
2018-01-07T00:18:40.248Z,5.30
2018-01-07T00:21:07.743Z,5.30
2018-01-07T00:23:35.244Z,5.30
2018-01-07T00:26:02.704Z,5.30
2018-01-07T00:28:30.197Z,5.30
2018-01-07T00:30:57.662Z,5.30
2018-01-07T00:33:25.174Z,5.20
2018-01-07T00:35:53.486Z,5.20
2018-01-07T00:38:20.970Z,5.20
2018-01-07T00:40:49.206Z,5.20
2018-01-07T00:43:17.498Z,5.20
2018-01-07T00:45:44.926Z,5.20
2018-01-07T00:48:12.393Z,5.30
2018-01-07T00:50:39.874Z,5.30
2018-01-07T00:53:07.328Z,5.30
2018-01-07T00:55:35.586Z,5.30
2018-01-07T00:58:03.073Z,5.30
2018-01-07T01:00:30.542Z,5.30
2018-01-07T01:02:58.784Z,5.30
2018-01-07T01:05:26.262Z,5.30
2018-01-07T01:07:53.782Z,5.20
2018-01-07T01:10:21.251Z,5.20
2018-01-07T01:12:48.835Z,5.10
2018-01-07T01:15:17.022Z,5.00
2018-01-07T01:17:44.464Z,5.00
2018-01-07T01:20:12.180Z,5.10
2018-01-07T01:22:39.687Z,5.20
2018-01-07T01:25:07.144Z,5.10
2018-01-07T01:27:34.653Z,5.20
2018-01-07T01:30:02.918Z,5.20
2018-01-07T01:32:30.435Z,5.10
2018-01-07T01:34:58.713Z,5.20
2018-01-07T01:37:26.158Z,5.20
2018-01-07T01:39:53.706Z,5.20
2018-01-07T01:42:21.934Z,5.30
2018-01-07T01:44:49.419Z,5.30
2018-01-07T01:47:16.875Z,5.30
2018-01-07T01:49:45.324Z,5.20
2018-01-07T01:52:12.737Z,5.20
2018-01-07T01:54:40.169Z,5.30
2018-01-07T01:57:07.697Z,5.30
2018-01-07T01:59:35.950Z,5.30
2018-01-07T02:02:03.436Z,5.20
2018-01-07T02:04:31.655Z,5.30
2018-01-07T02:06:59.140Z,5.20
2018-01-07T02:09:26.584Z,5.30
2018-01-07T02:11:54.182Z,5.40
2018-01-07T02:14:21.673Z,5.30
2018-01-07T02:16:49.139Z,5.20
2018-01-07T02:19:16.652Z,5.10
2018-01-07T02:21:44.108Z,5.10
2018-01-07T02:24:11.640Z,5.00
2018-01-07T02:26:39.188Z,5.20
2018-01-07T02:29:06.636Z,5.20
2018-01-07T02:31:34.142Z,5.10
2018-01-07T02:34:01.603Z,5.10
2018-01-07T02:36:29.196Z,5.00
2018-01-07T02:38:56.658Z,5.00
2018-01-07T02:41:24.152Z,5.00
2018-01-07T02:43:52.391Z,4.90
2018-01-07T02:46:19.860Z,4.90
2018-01-07T02:48:47.326Z,5.00
2018-01-07T02:51:14.781Z,5.00
2018-01-07T02:53:42.301Z,5.00
2018-01-07T02:56:09.786Z,5.00
2018-01-07T02:58:37.310Z,5.10
2018-01-07T03:01:04.725Z,5.00
2018-01-07T03:03:32.222Z,4.90
2018-01-07T03:05:59.685Z,4.90
2018-01-07T03:08:27.131Z,4.90
2018-01-07T03:10:54.603Z,4.80
2018-01-07T03:13:22.071Z,4.90
2018-01-07T03:15:49.585Z,4.90
2018-01-07T03:18:17.075Z,4.90
2018-01-07T03:20:44.553Z,4.90
2018-01-07T03:23:12.801Z,4.80
2018-01-07T03:25:40.266Z,4.80
2018-01-07T03:28:07.745Z,4.80
2018-01-07T03:30:35.223Z,4.80
2018-01-07T03:33:02.687Z,4.80
2018-01-07T03:35:30.224Z,4.80
2018-01-07T03:37:57.656Z,4.90
2018-01-07T03:40:25.199Z,4.80
2018-01-07T03:42:53.468Z,4.80
2018-01-07T03:45:20.906Z,4.70
2018-01-07T03:47:48.402Z,4.80
2018-01-07T03:50:16.637Z,4.80
2018-01-07T03:52:44.189Z,4.80
2018-01-07T03:55:11.603Z,4.90
2018-01-07T03:57:39.860Z,4.80
2018-01-07T04:00:07.308Z,4.70
2018-01-07T04:02:34.803Z,4.80
2018-01-07T04:05:02.320Z,4.90
2018-01-07T04:07:30.552Z,4.80
2018-01-07T04:09:58.833Z,4.90
2018-01-07T04:12:27.061Z,4.80
2018-01-07T04:14:54.532Z,4.80
2018-01-07T04:17:22.031Z,4.80
2018-01-07T04:19:49.438Z,4.90
2018-01-07T04:22:17.666Z,4.90
2018-01-07T04:24:45.113Z,4.90
2018-01-07T04:27:12.579Z,4.90
2018-01-07T04:29:40.105Z,4.90
2018-01-07T04:32:07.674Z,4.90
2018-01-07T04:34:36.448Z,4.80
2018-01-07T04:37:03.925Z,4.80
2018-01-07T04:39:31.380Z,4.80
2018-01-07T04:41:58.820Z,4.70
2018-01-07T04:44:26.291Z,4.80
2018-01-07T04:46:53.740Z,4.80
2018-01-07T04:49:21.988Z,4.70
2018-01-07T04:51:49.442Z,4.70
2018-01-07T04:54:16.916Z,4.80
2018-01-07T04:56:44.388Z,4.70
2018-01-07T04:59:11.873Z,4.60
2018-01-07T05:01:39.313Z,4.80
2018-01-07T05:04:06.824Z,4.80
2018-01-07T05:06:34.282Z,4.70
2018-01-07T05:09:01.753Z,4.70
2018-01-07T05:11:29.252Z,4.70
2018-01-07T05:13:56.792Z,4.60
2018-01-07T05:16:24.292Z,4.60
2018-01-07T05:18:51.748Z,4.60
2018-01-07T05:21:19.248Z,4.50
2018-01-07T05:23:46.738Z,4.60
2018-01-07T05:26:14.268Z,4.70
2018-01-07T05:28:41.779Z,4.60
2018-01-07T05:31:09.270Z,4.70
2018-01-07T05:33:36.739Z,4.50
2018-01-07T05:36:04.989Z,4.60
2018-01-07T05:38:32.431Z,4.60
2018-01-07T05:41:00.037Z,4.50
2018-01-07T05:43:27.462Z,4.50
2018-01-07T05:45:54.968Z,4.50
2018-01-07T05:48:22.454Z,4.50
2018-01-07T05:50:49.929Z,4.50
2018-01-07T05:53:17.397Z,4.60
2018-01-07T05:55:44.934Z,4.50
2018-01-07T05:58:12.372Z,4.50
2018-01-07T06:00:39.945Z,4.50
2018-01-07T06:03:07.392Z,4.50
2018-01-07T06:05:34.839Z,4.40
2018-01-07T06:08:02.329Z,4.50
2018-01-07T06:10:29.879Z,4.40
2018-01-07T06:12:58.058Z,4.30
2018-01-07T06:15:25.505Z,4.20
2018-01-07T06:17:52.968Z,4.30
2018-01-07T06:20:20.451Z,4.30
2018-01-07T06:22:47.952Z,4.20
2018-01-07T06:25:15.417Z,4.20
2018-01-07T06:27:43.639Z,4.30
2018-01-07T06:30:11.149Z,4.30
2018-01-07T06:32:39.428Z,4.30
2018-01-07T06:35:07.675Z,4.30
2018-01-07T06:37:35.130Z,4.30
2018-01-07T06:40:02.612Z,4.30
2018-01-07T06:42:30.070Z,4.30
2018-01-07T06:44:57.553Z,4.30
2018-01-07T06:47:25.832Z,4.20
2018-01-07T06:49:54.109Z,4.30
2018-01-07T06:52:22.324Z,4.20
2018-01-07T06:54:49.754Z,4.20
2018-01-07T06:57:18.047Z,4.00
2018-01-07T06:59:45.557Z,4.00
2018-01-07T07:02:13.012Z,3.90
2018-01-07T07:04:40.494Z,3.90
2018-01-07T07:07:07.960Z,4.00
2018-01-07T07:09:36.179Z,4.10
2018-01-07T07:12:03.703Z,4.10
2018-01-07T07:14:31.142Z,3.90
2018-01-07T07:16:59.393Z,3.90
2018-01-07T07:19:26.858Z,3.90
2018-01-07T07:21:54.342Z,4.00
2018-01-07T07:24:21.860Z,3.90
2018-01-07T07:26:49.336Z,3.80
2018-01-07T07:29:16.817Z,3.80
2018-01-07T07:31:44.263Z,3.80
2018-01-07T07:34:11.748Z,3.70
2018-01-07T07:36:39.192Z,3.50
2018-01-07T07:39:06.757Z,3.50
2018-01-07T07:41:34.211Z,3.50
2018-01-07T07:44:01.661Z,3.50
2018-01-07T07:46:30.013Z,3.50
2018-01-07T07:48:58.186Z,3.50
2018-01-07T07:51:25.628Z,3.40
2018-01-07T07:53:53.110Z,3.50
2018-01-07T07:56:20.606Z,3.50
2018-01-07T07:58:48.039Z,3.40
2018-01-07T08:01:15.476Z,3.40
2018-01-07T08:03:42.953Z,3.40
2018-01-07T08:06:10.438Z,3.40
2018-01-07T08:08:37.923Z,3.50
2018-01-07T08:11:06.133Z,3.40
2018-01-07T08:13:33.646Z,3.40
2018-01-07T08:16:01.146Z,3.50
2018-01-07T08:18:28.598Z,3.40
2018-01-07T08:20:56.259Z,3.40
2018-01-07T08:23:24.465Z,3.50
2018-01-07T08:25:51.951Z,3.50
2018-01-07T08:28:19.426Z,3.50
2018-01-07T08:30:46.906Z,3.40
2018-01-07T08:33:14.376Z,3.30
2018-01-07T08:35:42.642Z,3.40
2018-01-07T08:38:10.098Z,3.40
2018-01-07T08:40:37.496Z,3.30
2018-01-07T08:43:05.074Z,3.40
2018-01-07T08:45:32.594Z,3.30
2018-01-07T08:48:00.046Z,3.20
2018-01-07T08:50:27.542Z,3.30
2018-01-07T08:52:55.869Z,3.30
2018-01-07T08:55:23.324Z,3.30
2018-01-07T08:57:50.807Z,3.30
2018-01-07T09:00:18.383Z,3.20
2018-01-07T09:02:45.831Z,3.10
2018-01-07T09:05:13.293Z,3.20
2018-01-07T09:07:40.768Z,3.30
2018-01-07T09:10:08.237Z,3.20
2018-01-07T09:12:35.748Z,3.20
2018-01-07T09:15:03.233Z,3.20
2018-01-07T09:17:32.113Z,3.40
2018-01-07T09:19:59.564Z,3.50
2018-01-07T09:22:27.026Z,3.30
2018-01-07T09:24:54.518Z,3.20
2018-01-07T09:27:22.000Z,3.30
2018-01-07T09:29:49.508Z,3.30
2018-01-07T09:32:16.933Z,3.40
2018-01-07T09:34:44.417Z,3.40
2018-01-07T09:37:12.765Z,3.40
2018-01-07T09:39:40.246Z,3.40
2018-01-07T09:42:07.730Z,3.50
2018-01-07T09:44:35.214Z,3.40
2018-01-07T09:47:02.723Z,3.50
2018-01-07T09:49:30.199Z,3.60
2018-01-07T09:51:57.671Z,3.60
2018-01-07T09:54:25.880Z,3.30
2018-01-07T09:56:53.349Z,3.30
2018-01-07T09:59:20.813Z,3.30
2018-01-07T10:01:48.310Z,3.40
2018-01-07T10:04:15.760Z,3.40
2018-01-07T10:06:43.238Z,3.50
2018-01-07T10:09:10.725Z,3.70
2018-01-07T10:11:39.013Z,3.70
2018-01-07T10:14:07.225Z,3.70
2018-01-07T10:16:34.733Z,3.70
2018-01-07T10:19:02.192Z,3.70
2018-01-07T10:21:29.704Z,3.60
2018-01-07T10:23:57.170Z,3.70
2018-01-07T10:26:24.719Z,3.70
2018-01-07T10:28:52.192Z,3.80
2018-01-07T10:31:19.717Z,3.70
2018-01-07T10:33:47.319Z,3.80
2018-01-07T10:36:14.766Z,3.60
2018-01-07T10:38:43.016Z,3.60
2018-01-07T10:41:10.485Z,3.50
2018-01-07T10:43:37.957Z,3.60
2018-01-07T10:46:05.402Z,3.50
2018-01-07T10:48:33.928Z,3.50
2018-01-07T10:51:01.423Z,3.60
2018-01-07T10:53:28.880Z,3.70
2018-01-07T10:55:56.373Z,3.70
2018-01-07T10:58:23.883Z,3.60
2018-01-07T11:00:52.085Z,3.70
2018-01-07T11:03:19.575Z,3.70
2018-01-07T11:05:47.084Z,3.70
2018-01-07T11:08:14.539Z,3.80
2018-01-07T11:10:42.907Z,3.90
2018-01-07T11:13:10.320Z,3.90
2018-01-07T11:15:38.573Z,3.90
2018-01-07T11:18:06.009Z,3.80
2018-01-07T11:20:34.247Z,3.90
2018-01-07T11:23:01.756Z,3.80
2018-01-07T11:25:29.280Z,3.80
2018-01-07T11:27:57.481Z,3.90
2018-01-07T11:30:24.992Z,3.80
2018-01-07T11:32:52.501Z,3.70
2018-01-07T11:35:20.045Z,3.70
2018-01-07T11:37:47.602Z,3.80
2018-01-07T11:40:15.092Z,3.70
2018-01-07T11:42:42.605Z,3.80
2018-01-07T11:45:10.089Z,3.80
2018-01-07T11:47:37.593Z,3.70
2018-01-07T11:50:05.065Z,3.60
2018-01-07T11:52:33.335Z,3.70
2018-01-07T11:55:00.814Z,3.70
2018-01-07T11:57:28.342Z,3.70
2018-01-07T11:59:55.771Z,3.60
2018-01-07T12:02:23.196Z,3.70
2018-01-07T12:04:51.511Z,3.80
2018-01-07T12:07:18.981Z,3.80
2018-01-07T12:09:46.490Z,3.90
2018-01-07T12:12:14.284Z,3.90
2018-01-07T12:14:43.489Z,3.90
2018-01-07T12:17:11.261Z,4.00
2018-01-07T12:19:38.854Z,4.00
2018-01-07T12:22:06.304Z,3.90
2018-01-07T12:24:34.358Z,3.90
2018-01-07T12:27:01.982Z,3.80
2018-01-07T12:29:29.441Z,3.80
2018-01-07T12:31:57.989Z,3.70
2018-01-07T12:34:26.173Z,3.90
2018-01-07T12:36:53.628Z,3.90
2018-01-07T12:39:21.524Z,4.00
2018-01-07T12:41:49.040Z,3.90
2018-01-07T12:44:18.012Z,3.90
2018-01-07T12:46:45.461Z,3.90
2018-01-07T12:49:13.116Z,3.90
2018-01-07T12:51:40.573Z,3.90
2018-01-07T12:54:08.098Z,3.80
2018-01-07T12:56:35.697Z,3.90
2018-01-07T12:59:04.007Z,3.90
2018-01-07T13:01:31.521Z,3.90
2018-01-07T13:03:59.008Z,3.90
2018-01-07T13:06:27.354Z,3.90
2018-01-07T13:08:54.833Z,3.90
2018-01-07T13:11:22.307Z,4.00
2018-01-07T13:13:50.550Z,4.30
2018-01-07T13:16:18.094Z,4.30
2018-01-07T13:18:45.603Z,4.10
2018-01-07T13:21:13.089Z,3.90
2018-01-07T13:23:40.578Z,3.90
2018-01-07T13:26:08.096Z,3.90
2018-01-07T13:28:35.549Z,4.00
2018-01-07T13:31:03.088Z,4.00
2018-01-07T13:33:30.552Z,4.00
2018-01-07T13:35:58.052Z,3.90
2018-01-07T13:38:25.613Z,3.90
2018-01-07T13:40:53.085Z,3.90
2018-01-07T13:43:20.573Z,3.90
2018-01-07T13:45:48.843Z,3.90
2018-01-07T13:48:16.362Z,3.80
2018-01-07T13:50:43.863Z,4.00
2018-01-07T13:53:11.382Z,4.00
2018-01-07T13:55:38.839Z,4.00
2018-01-07T13:58:06.347Z,4.00
2018-01-07T14:00:34.571Z,4.00
2018-01-07T14:03:02.098Z,4.00
2018-01-07T14:05:30.342Z,3.90
2018-01-07T14:07:59.330Z,3.90
2018-01-07T14:10:27.583Z,3.90
2018-01-07T14:12:55.104Z,3.90
2018-01-07T14:15:22.588Z,3.90
2018-01-07T14:17:50.043Z,4.00
2018-01-07T14:20:17.512Z,3.80
2018-01-07T14:22:45.175Z,3.90
2018-01-07T14:25:12.692Z,3.90
2018-01-07T14:27:40.181Z,3.80
2018-01-07T14:30:08.469Z,3.70
2018-01-07T14:32:35.914Z,3.70
2018-01-07T14:35:03.462Z,3.60
2018-01-07T14:37:30.986Z,3.60
2018-01-07T14:39:59.231Z,3.70
2018-01-07T14:42:27.750Z,3.70
2018-01-07T14:44:55.321Z,3.70
2018-01-07T14:47:22.763Z,3.60
2018-01-07T14:49:50.253Z,3.60
2018-01-07T14:52:17.756Z,3.60
2018-01-07T14:54:45.209Z,3.60
2018-01-07T14:57:12.706Z,3.60
2018-01-07T14:59:40.969Z,3.50
2018-01-07T15:02:08.469Z,3.50
2018-01-07T15:04:36.700Z,3.40
2018-01-07T15:07:04.220Z,3.40
2018-01-07T15:09:31.767Z,3.40
2018-01-07T15:11:59.224Z,3.50
2018-01-07T15:14:27.465Z,3.40
2018-01-07T15:16:55.723Z,3.40
2018-01-07T15:19:23.196Z,3.40
2018-01-07T15:24:44.758Z,3.50
2018-01-07T15:27:12.201Z,3.30
2018-01-07T15:29:40.202Z,3.20
2018-01-07T15:32:08.211Z,3.20
2018-01-07T15:34:36.542Z,3.10
2018-01-07T15:37:04.843Z,3.20
2018-01-07T15:39:33.002Z,3.20
2018-01-07T15:42:01.169Z,3.10
2018-01-07T15:44:28.899Z,3.10
2018-01-07T15:46:56.415Z,3.10
2018-01-07T15:49:24.001Z,3.10
2018-01-07T15:51:51.463Z,2.90
2018-01-07T15:54:19.513Z,3.00
2018-01-07T15:56:47.030Z,3.10
2018-01-07T15:59:14.943Z,3.00
2018-01-07T16:01:42.478Z,2.90
2018-01-07T16:04:09.938Z,2.90
2018-01-07T16:06:38.144Z,2.90
2018-01-07T16:09:05.662Z,2.90
2018-01-07T16:11:33.258Z,2.90
2018-01-07T16:14:00.888Z,2.90
2018-01-07T16:16:28.386Z,2.90
2018-01-07T16:18:55.918Z,2.70
2018-01-07T16:21:23.371Z,2.90
2018-01-07T16:23:50.833Z,2.80
2018-01-07T16:26:18.305Z,2.70
2018-01-07T16:28:45.768Z,2.70
2018-01-07T16:31:13.254Z,2.70
2018-01-07T16:33:40.765Z,2.90
2018-01-07T16:36:08.235Z,2.90
2018-01-07T16:38:36.524Z,2.70
2018-01-07T16:41:04.748Z,2.80
2018-01-07T16:43:32.179Z,2.80
2018-01-07T16:45:59.635Z,2.80
2018-01-07T16:48:27.138Z,2.70
2018-01-07T16:50:55.547Z,2.70
2018-01-07T16:53:24.015Z,2.70
2018-01-07T16:55:51.448Z,2.70
2018-01-07T16:58:19.340Z,2.70
2018-01-07T17:00:47.201Z,2.60
2018-01-07T17:06:01.832Z,2.60
2018-01-07T17:08:29.388Z,2.60
2018-01-07T17:10:56.916Z,2.60
2018-01-07T17:13:25.137Z,2.60
2018-01-07T17:15:52.618Z,2.60
2018-01-07T17:18:25.990Z,2.60
2018-01-07T17:20:53.480Z,2.60
2018-01-07T17:23:21.749Z,3.10
2018-01-07T17:25:49.973Z,3.10
2018-01-07T17:28:25.457Z,3.10
2018-01-07T17:30:53.736Z,2.70
2018-01-07T17:33:27.996Z,2.70
2018-01-07T17:35:56.253Z,2.60
2018-01-07T17:38:23.674Z,2.60
2018-01-07T17:41:03.310Z,2.70
2018-01-07T17:43:32.403Z,2.60
2018-01-07T17:45:59.859Z,2.60
2018-01-07T17:48:27.363Z,2.60
2018-01-07T17:50:55.649Z,2.60
2018-01-07T17:53:23.206Z,2.60
2018-01-07T17:55:50.669Z,2.60
2018-01-07T17:58:18.247Z,2.60
2018-01-07T18:00:45.655Z,2.60
2018-01-07T18:03:13.165Z,2.50
2018-01-07T18:05:40.625Z,2.60
2018-01-07T18:08:08.160Z,2.50
2018-01-07T18:10:35.688Z,2.50
2018-01-07T18:13:03.126Z,2.50
2018-01-07T18:15:30.734Z,2.40
2018-01-07T18:17:58.464Z,2.40
2018-01-07T18:20:26.385Z,2.40
2018-01-07T18:22:53.822Z,2.40
2018-01-07T18:25:21.275Z,2.40
2018-01-07T18:27:48.795Z,2.30
2018-01-07T18:30:16.586Z,2.20
2018-01-07T18:32:44.870Z,2.40
2018-01-07T18:35:12.371Z,2.30
2018-01-07T18:37:39.845Z,2.40
2018-01-07T18:40:07.327Z,2.40
2018-01-07T18:42:34.903Z,2.40
2018-01-07T18:45:02.389Z,2.40
2018-01-07T18:47:30.644Z,2.40
2018-01-07T18:49:58.198Z,2.40
2018-01-07T18:52:25.610Z,2.40
2018-01-07T18:54:53.140Z,2.40
2018-01-07T18:57:20.708Z,2.30
2018-01-07T18:59:48.159Z,2.80
2018-01-07T19:02:15.721Z,2.90
2018-01-07T19:04:43.322Z,3.00
2018-01-07T19:07:11.525Z,2.70
2018-01-07T19:09:39.042Z,2.70
2018-01-07T19:12:06.534Z,2.70
2018-01-07T19:14:34.045Z,3.00
2018-01-07T19:17:01.587Z,2.80
2018-01-07T19:19:29.061Z,2.50
2018-01-07T19:21:56.585Z,2.60
2018-01-07T19:24:24.143Z,2.50
2018-01-07T19:26:51.728Z,2.60
2018-01-07T19:29:19.436Z,2.50
2018-01-07T19:31:46.981Z,2.50
2018-01-07T19:34:15.131Z,2.60
2018-01-07T19:36:43.514Z,2.60
2018-01-07T19:39:10.971Z,2.60
2018-01-07T19:41:38.565Z,2.50
2018-01-07T19:44:06.219Z,2.60
2018-01-07T19:46:33.990Z,2.60
2018-01-07T19:49:01.696Z,2.50
2018-01-07T19:51:30.081Z,2.50
2018-01-07T19:53:57.580Z,2.40
2018-01-07T19:56:25.106Z,2.40
2018-01-07T19:58:52.674Z,2.50
2018-01-07T20:01:20.592Z,2.40
2018-01-07T20:03:48.046Z,2.40
2018-01-07T20:06:16.442Z,2.30
2018-01-07T20:08:44.165Z,2.30
2018-01-07T20:11:11.651Z,2.40
2018-01-07T20:13:40.077Z,2.40
2018-01-07T20:16:07.649Z,2.40
2018-01-07T20:18:35.156Z,2.50
2018-01-07T20:21:03.458Z,2.50
2018-01-07T20:23:31.152Z,2.50
2018-01-07T20:25:58.846Z,2.50
2018-01-07T20:28:26.351Z,2.50
2018-01-07T20:30:54.639Z,2.50
2018-01-07T20:33:22.215Z,2.50
2018-01-07T20:35:49.850Z,2.50
2018-01-07T20:38:18.143Z,2.70
2018-01-07T20:40:45.733Z,2.60
2018-01-07T20:43:13.180Z,2.60
2018-01-07T20:45:40.698Z,2.60
2018-01-07T20:48:08.201Z,2.60
2018-01-07T20:50:36.493Z,2.70
2018-01-07T20:53:03.954Z,2.60
2018-01-07T20:55:31.541Z,2.60
2018-01-07T20:57:59.823Z,2.60
2018-01-07T21:00:28.031Z,2.60
2018-01-07T21:02:55.460Z,2.60
2018-01-07T21:05:22.949Z,2.60
2018-01-07T21:07:50.526Z,2.70
2018-01-07T21:10:18.024Z,2.70
2018-01-07T21:12:45.503Z,2.60
2018-01-07T21:15:13.006Z,2.60
2018-01-07T21:17:40.507Z,2.70
2018-01-07T21:20:07.998Z,2.70
2018-01-07T21:22:35.457Z,2.80
2018-01-07T21:25:03.000Z,2.70
2018-01-07T21:27:30.447Z,2.70
2018-01-07T21:29:58.770Z,2.70
2018-01-07T21:32:26.926Z,2.70
2018-01-07T21:34:55.490Z,2.70
2018-01-07T21:37:23.759Z,2.80
2018-01-07T21:39:52.000Z,2.80
2018-01-07T21:42:19.464Z,2.80
2018-01-07T21:44:46.992Z,2.70
2018-01-07T21:47:15.236Z,2.70
2018-01-07T21:49:42.697Z,2.60
2018-01-07T21:52:10.194Z,2.60
2018-01-07T21:54:37.735Z,2.70
2018-01-07T21:57:05.215Z,2.70
2018-01-07T21:59:33.451Z,2.80
2018-01-07T22:02:00.966Z,2.80
2018-01-07T22:04:28.381Z,2.70
2018-01-07T22:06:55.878Z,2.70
2018-01-07T22:09:24.166Z,2.70
2018-01-07T22:11:52.387Z,2.80
2018-01-07T22:14:19.889Z,2.80
2018-01-07T22:16:47.398Z,2.90
2018-01-07T22:19:14.962Z,2.90
2018-01-07T22:21:42.418Z,2.90
2018-01-07T22:24:09.926Z,2.90
2018-01-07T22:26:37.422Z,2.80
2018-01-07T22:29:04.906Z,2.70
2018-01-07T22:31:33.357Z,2.80
2018-01-07T22:34:03.492Z,2.80
2018-01-07T22:36:30.997Z,2.80
2018-01-07T22:38:58.685Z,2.80
2018-01-07T22:41:26.980Z,2.70
2018-01-07T22:43:54.512Z,2.60
2018-01-07T22:46:22.026Z,2.70
2018-01-07T22:48:50.277Z,2.70
2018-01-07T22:51:17.772Z,2.60
2018-01-07T22:53:46.000Z,2.50
2018-01-07T22:56:13.570Z,2.50
2018-01-07T22:58:41.192Z,2.60
2018-01-07T23:01:08.852Z,2.60
2018-01-07T23:06:44.931Z,2.40
2018-01-07T23:09:12.726Z,2.40
2018-01-07T23:11:40.988Z,2.40
2018-01-07T23:14:08.488Z,2.40
2018-01-07T23:16:35.985Z,2.40
2018-01-07T23:19:03.471Z,2.50
2018-01-07T23:21:30.989Z,2.50
2018-01-07T23:23:58.459Z,2.50
2018-01-07T23:26:25.943Z,2.50
2018-01-07T23:28:53.473Z,2.50
2018-01-07T23:31:20.954Z,2.50
2018-01-07T23:33:48.612Z,2.50
2018-01-07T23:36:16.826Z,2.50
2018-01-07T23:38:44.336Z,2.50
2018-01-07T23:41:11.857Z,2.50
2018-01-07T23:43:39.349Z,2.40
2018-01-07T23:46:08.387Z,2.40
2018-01-07T23:48:35.962Z,2.40
2018-01-07T23:51:03.418Z,2.50
2018-01-07T23:53:30.893Z,2.50
2018-01-07T23:55:58.346Z,2.50
2018-01-07T23:58:25.808Z,2.40
